sensor_id;sensor_type;location;lat;lon;timestamp;P1;durP1;ratioP1;P2;durP2;ratioP2
25609;SDS011;13479;49.044;8.716;2022-11-27T05:00:55;23.87;;;11.97;;
25609;SDS011;13479;49.044;8.716;2022-11-27T05:03:20;19.57;;;9.90;;
25609;SDS011;13479;49.044;8.716;2022-11-27T05:05:52;19.97;;;10.80;;
25609;SDS011;13479;49.044;8.716;2022-11-27T05:08:19;23.43;;;11.37;;
25609;SDS011;13479;49.044;8.716;2022-11-27T05:10:44;22.23;;;11.20;;
25609;SDS011;13479;49.044;8.716;2022-11-27T05:13:10;20.50;;;10.00;;
25609;SDS011;13479;49.044;8.716;2022-11-27T05:18:03;20.63;;;10.70;;
25609;SDS011;13479;49.044;8.716;2022-11-27T05:20:29;23.17;;;11.10;;
25609;SDS011;13479;49.044;8.716;2022-11-27T05:22:54;16.27;;;9.40;;
25609;SDS011;13479;49.044;8.716;2022-11-27T05:25:19;20.10;;;10.80;;
25609;SDS011;13479;49.044;8.716;2022-11-27T05:27:44;21.23;;;11.30;;
25609;SDS011;13479;49.044;8.716;2022-11-27T05:30:10;28.50;;;13.93;;
25609;SDS011;13479;49.044;8.716;2022-11-27T05:32:35;21.93;;;10.90;;
25609;SDS011;13479;49.044;8.716;2022-11-27T05:35:01;18.70;;;9.00;;
25609;SDS011;13479;49.044;8.716;2022-11-27T05:37:26;19.33;;;10.13;;
25609;SDS011;13479;49.044;8.716;2022-11-27T05:39:51;18.90;;;8.90;;
25609;SDS011;13479;49.044;8.716;2022-11-27T05:42:16;21.17;;;10.07;;
25609;SDS011;13479;49.044;8.716;2022-11-27T05:44:42;24.83;;;11.50;;
25609;SDS011;13479;49.044;8.716;2022-11-27T05:47:07;22.50;;;10.00;;
25609;SDS011;13479;49.044;8.716;2022-11-27T05:49:32;21.57;;;9.23;;
25609;SDS011;13479;49.044;8.716;2022-11-27T05:51:57;47.83;;;20.57;;
25609;SDS011;13479;49.044;8.716;2022-11-27T05:54:23;44.17;;;19.70;;
25609;SDS011;13479;49.044;8.716;2022-11-27T05:56:48;33.47;;;16.47;;
25609;SDS011;13479;49.044;8.716;2022-11-27T05:59:13;29.57;;;15.47;;
25609;SDS011;13479;49.044;8.716;2022-11-27T06:01:39;21.80;;;11.17;;
25609;SDS011;13479;49.044;8.716;2022-11-27T06:04:04;37.07;;;16.43;;
25609;SDS011;13479;49.044;8.716;2022-11-27T06:06:29;25.57;;;12.23;;
25609;SDS011;13479;49.044;8.716;2022-11-27T06:08:55;23.80;;;12.43;;
25609;SDS011;13479;49.044;8.716;2022-11-27T06:11:21;19.00;;;10.33;;
25609;SDS011;13479;49.044;8.716;2022-11-27T06:13:47;18.37;;;10.53;;
25609;SDS011;13479;49.044;8.716;2022-11-27T06:16:14;23.70;;;12.53;;
25609;SDS011;13479;49.044;8.716;2022-11-27T06:18:41;23.90;;;12.87;;
25609;SDS011;13479;49.044;8.716;2022-11-27T06:21:08;29.40;;;12.77;;
25609;SDS011;13479;49.044;8.716;2022-11-27T06:23:35;31.63;;;11.30;;
25609;SDS011;13479;49.044;8.716;2022-11-27T06:26:17;28.80;;;13.23;;
25609;SDS011;13479;49.044;8.716;2022-11-27T06:28:44;30.20;;;12.30;;
25609;SDS011;13479;49.044;8.716;2022-11-27T06:31:11;27.63;;;13.17;;
25609;SDS011;13479;49.044;8.716;2022-11-27T06:33:38;17.53;;;10.00;;
25609;SDS011;13479;49.044;8.716;2022-11-27T06:36:04;25.77;;;12.93;;
25609;SDS011;13479;49.044;8.716;2022-11-27T06:38:33;37.43;;;16.40;;
25609;SDS011;13479;49.044;8.716;2022-11-27T06:43:29;24.43;;;12.57;;
25609;SDS011;13479;49.044;8.716;2022-11-27T06:45:55;21.87;;;12.27;;
25609;SDS011;13479;49.044;8.716;2022-11-27T06:48:21;31.50;;;12.70;;
25609;SDS011;13479;49.044;8.716;2022-11-27T06:50:47;29.67;;;13.87;;
25609;SDS011;13479;49.044;8.716;2022-11-27T06:53:12;22.70;;;11.33;;
25609;SDS011;13479;49.044;8.716;2022-11-27T06:55:37;24.77;;;13.23;;
25609;SDS011;13479;49.044;8.716;2022-11-27T06:58:02;25.73;;;13.23;;
25609;SDS011;13479;49.044;8.716;2022-11-27T07:00:28;24.23;;;13.03;;
25609;SDS011;13479;49.044;8.716;2022-11-27T07:02:53;27.90;;;14.57;;
25609;SDS011;13479;49.044;8.716;2022-11-27T07:05:19;24.17;;;13.07;;
25609;SDS011;13479;49.044;8.716;2022-11-27T07:07:45;26.83;;;14.17;;
25609;SDS011;13479;49.044;8.716;2022-11-27T07:10:10;24.80;;;12.67;;
25609;SDS011;13479;49.044;8.716;2022-11-27T07:12:35;16.97;;;9.27;;
25609;SDS011;13479;49.044;8.716;2022-11-27T07:15:01;16.97;;;10.43;;
25609;SDS011;13479;49.044;8.716;2022-11-27T07:17:26;15.20;;;8.07;;
25609;SDS011;13479;49.044;8.716;2022-11-27T07:19:51;15.27;;;6.13;;
25609;SDS011;13479;49.044;8.716;2022-11-27T07:22:16;16.33;;;8.33;;
25609;SDS011;13479;49.044;8.716;2022-11-27T07:24:42;15.40;;;7.30;;
25609;SDS011;13479;49.044;8.716;2022-11-27T07:27:07;20.73;;;7.83;;
25609;SDS011;13479;49.044;8.716;2022-11-27T07:29:32;17.00;;;8.80;;
25609;SDS011;13479;49.044;8.716;2022-11-27T07:31:58;16.17;;;9.33;;
25609;SDS011;13479;49.044;8.716;2022-11-27T07:34:23;15.03;;;7.10;;
25609;SDS011;13479;49.044;8.716;2022-11-27T07:36:48;14.90;;;7.50;;
25609;SDS011;13479;49.044;8.716;2022-11-27T07:39:15;17.07;;;7.40;;
25609;SDS011;13479;49.044;8.716;2022-11-27T07:41:41;11.40;;;6.20;;
25609;SDS011;13479;49.044;8.716;2022-11-27T07:44:06;13.87;;;6.27;;
25609;SDS011;13479;49.044;8.716;2022-11-27T07:46:33;12.03;;;6.13;;
25609;SDS011;13479;49.044;8.716;2022-11-27T07:48:58;16.27;;;6.57;;
25609;SDS011;13479;49.044;8.716;2022-11-27T07:51:24;13.97;;;6.30;;
25609;SDS011;13479;49.044;8.716;2022-11-27T07:53:50;12.33;;;6.20;;
25609;SDS011;13479;49.044;8.716;2022-11-27T07:56:16;11.37;;;5.83;;
25609;SDS011;13479;49.044;8.716;2022-11-27T07:58:41;15.50;;;7.07;;
25609;SDS011;13479;49.044;8.716;2022-11-27T08:01:08;14.73;;;7.90;;
25609;SDS011;13479;49.044;8.716;2022-11-27T08:03:35;11.23;;;5.90;;
25609;SDS011;13479;49.044;8.716;2022-11-27T08:06:00;84.10;;;45.77;;
25609;SDS011;13479;49.044;8.716;2022-11-27T08:08:26;35.87;;;20.83;;
25609;SDS011;13479;49.044;8.716;2022-11-27T08:10:51;24.30;;;15.67;;
25609;SDS011;13479;49.044;8.716;2022-11-27T08:13:16;16.20;;;9.17;;
25609;SDS011;13479;49.044;8.716;2022-11-27T08:15:42;13.00;;;7.40;;
25609;SDS011;13479;49.044;8.716;2022-11-27T08:18:07;15.63;;;8.83;;
25609;SDS011;13479;49.044;8.716;2022-11-27T08:20:32;22.50;;;10.10;;
25609;SDS011;13479;49.044;8.716;2022-11-27T08:22:58;13.07;;;5.50;;
25609;SDS011;13479;49.044;8.716;2022-11-27T08:25:23;10.60;;;5.53;;
25609;SDS011;13479;49.044;8.716;2022-11-27T08:27:48;16.23;;;9.70;;
25609;SDS011;13479;49.044;8.716;2022-11-27T08:30:14;16.03;;;9.20;;
25609;SDS011;13479;49.044;8.716;2022-11-27T08:32:40;14.60;;;6.00;;
25609;SDS011;13479;49.044;8.716;2022-11-27T08:35:07;10.47;;;5.23;;
25609;SDS011;13479;49.044;8.716;2022-11-27T08:37:33;11.07;;;4.87;;
25609;SDS011;13479;49.044;8.716;2022-11-27T08:39:58;10.43;;;4.43;;
25609;SDS011;13479;49.044;8.716;2022-11-27T08:42:24;9.60;;;4.90;;
25609;SDS011;13479;49.044;8.716;2022-11-27T08:44:49;8.03;;;4.20;;
25609;SDS011;13479;49.044;8.716;2022-11-27T08:47:14;7.50;;;4.17;;
25609;SDS011;13479;49.044;8.716;2022-11-27T08:49:40;9.47;;;3.37;;
25609;SDS011;13479;49.044;8.716;2022-11-27T08:52:07;6.37;;;3.30;;
25609;SDS011;13479;49.044;8.716;2022-11-27T08:54:32;4.53;;;2.43;;
25609;SDS011;13479;49.044;8.716;2022-11-27T08:56:58;4.20;;;2.40;;
25609;SDS011;13479;49.044;8.716;2022-11-27T08:59:23;5.27;;;2.47;;
25609;SDS011;13479;49.044;8.716;2022-11-27T09:01:48;4.67;;;1.90;;
25609;SDS011;13479;49.044;8.716;2022-11-27T09:04:14;7.90;;;3.83;;
25609;SDS011;13479;49.044;8.716;2022-11-27T09:06:39;7.80;;;3.60;;
25609;SDS011;13479;49.044;8.716;2022-11-27T09:09:05;6.30;;;3.23;;
25609;SDS011;13479;49.044;8.716;2022-11-27T09:11:30;7.90;;;3.53;;
25609;SDS011;13479;49.044;8.716;2022-11-27T09:13:58;13.77;;;7.77;;
25609;SDS011;13479;49.044;8.716;2022-11-27T09:16:24;16.27;;;8.03;;
25609;SDS011;13479;49.044;8.716;2022-11-27T09:18:49;14.60;;;6.80;;
25609;SDS011;13479;49.044;8.716;2022-11-27T09:21:16;12.10;;;5.10;;
25609;SDS011;13479;49.044;8.716;2022-11-27T09:23:43;13.47;;;5.30;;
25609;SDS011;13479;49.044;8.716;2022-11-27T09:26:12;6.17;;;3.47;;
25609;SDS011;13479;49.044;8.716;2022-11-27T09:28:39;7.90;;;4.10;;
25609;SDS011;13479;49.044;8.716;2022-11-27T09:31:06;5.53;;;3.20;;
25609;SDS011;13479;49.044;8.716;2022-11-27T09:33:35;7.40;;;3.17;;
25609;SDS011;13479;49.044;8.716;2022-11-27T09:36:05;13.10;;;5.75;;
25609;SDS011;13479;49.044;8.716;2022-11-27T09:38:32;11.68;;;4.47;;
25609;SDS011;13479;49.044;8.716;2022-11-27T09:40:59;4.90;;;2.47;;
25609;SDS011;13479;49.044;8.716;2022-11-27T09:43:51;6.07;;;3.13;;
25609;SDS011;13479;49.044;8.716;2022-11-27T09:46:31;6.50;;;3.10;;
25609;SDS011;13479;49.044;8.716;2022-11-27T09:49:02;7.85;;;4.15;;
25609;SDS011;13479;49.044;8.716;2022-11-27T09:51:33;5.72;;;2.92;;
25609;SDS011;13479;49.044;8.716;2022-11-27T09:54:05;5.90;;;3.50;;
25609;SDS011;13479;49.044;8.716;2022-11-27T09:56:39;5.95;;;3.13;;
25609;SDS011;13479;49.044;8.716;2022-11-27T09:59:16;5.75;;;2.67;;
25609;SDS011;13479;49.044;8.716;2022-11-27T10:01:43;5.70;;;2.55;;
25609;SDS011;13479;49.044;8.716;2022-11-27T10:04:12;6.80;;;3.70;;
25609;SDS011;13479;49.044;8.716;2022-11-27T10:12:33;5.28;;;2.67;;
25609;SDS011;13479;49.044;8.716;2022-11-27T10:15:18;5.45;;;2.70;;
25609;SDS011;13479;49.044;8.716;2022-11-27T10:18:04;7.95;;;3.67;;
25609;SDS011;13479;49.044;8.716;2022-11-27T10:20:41;5.70;;;2.72;;
25609;SDS011;13479;49.044;8.716;2022-11-27T10:23:15;6.10;;;2.85;;
25609;SDS011;13479;49.044;8.716;2022-11-27T10:25:49;3.83;;;1.92;;
25609;SDS011;13479;49.044;8.716;2022-11-27T10:28:20;4.72;;;2.45;;
25609;SDS011;13479;49.044;8.716;2022-11-27T10:30:58;7.65;;;2.97;;
25609;SDS011;13479;49.044;8.716;2022-11-27T10:33:39;5.22;;;2.40;;
25609;SDS011;13479;49.044;8.716;2022-11-27T10:36:16;6.15;;;3.08;;
25609;SDS011;13479;49.044;8.716;2022-11-27T10:38:45;9.57;;;5.20;;
25609;SDS011;13479;49.044;8.716;2022-11-27T10:43:42;8.88;;;4.18;;
25609;SDS011;13479;49.044;8.716;2022-11-27T10:46:12;15.73;;;7.10;;
25609;SDS011;13479;49.044;8.716;2022-11-27T10:48:42;6.38;;;3.20;;
25609;SDS011;13479;49.044;8.716;2022-11-27T10:51:17;10.80;;;4.53;;
25609;SDS011;13479;49.044;8.716;2022-11-27T10:53:46;4.97;;;3.22;;
25609;SDS011;13479;49.044;8.716;2022-11-27T10:56:20;10.85;;;4.85;;
25609;SDS011;13479;49.044;8.716;2022-11-27T10:59:12;6.68;;;3.05;;
25609;SDS011;13479;49.044;8.716;2022-11-27T11:01:44;6.32;;;3.45;;
25609;SDS011;13479;49.044;8.716;2022-11-27T11:04:12;5.25;;;2.53;;
25609;SDS011;13479;49.044;8.716;2022-11-27T11:06:44;6.72;;;3.50;;
25609;SDS011;13479;49.044;8.716;2022-11-27T11:09:21;6.30;;;3.05;;
25609;SDS011;13479;49.044;8.716;2022-11-27T11:11:47;5.53;;;2.95;;
25609;SDS011;13479;49.044;8.716;2022-11-27T11:14:23;5.43;;;3.03;;
25609;SDS011;13479;49.044;8.716;2022-11-27T11:16:50;5.13;;;2.55;;
25609;SDS011;13479;49.044;8.716;2022-11-27T11:19:23;6.10;;;2.90;;
25609;SDS011;13479;49.044;8.716;2022-11-27T11:21:52;6.32;;;2.53;;
25609;SDS011;13479;49.044;8.716;2022-11-27T11:26:55;5.07;;;2.97;;
25609;SDS011;13479;49.044;8.716;2022-11-27T11:32:02;4.80;;;2.30;;
25609;SDS011;13479;49.044;8.716;2022-11-27T11:34:31;5.90;;;2.50;;
25609;SDS011;13479;49.044;8.716;2022-11-27T11:36:59;3.58;;;2.35;;
25609;SDS011;13479;49.044;8.716;2022-11-27T11:39:27;5.60;;;2.25;;
25609;SDS011;13479;49.044;8.716;2022-11-27T11:41:56;4.55;;;2.10;;
25609;SDS011;13479;49.044;8.716;2022-11-27T11:44:23;4.38;;;1.75;;
25609;SDS011;13479;49.044;8.716;2022-11-27T11:46:54;3.40;;;1.70;;
25609;SDS011;13479;49.044;8.716;2022-11-27T11:49:23;4.60;;;2.03;;
25609;SDS011;13479;49.044;8.716;2022-11-27T11:55:02;3.13;;;1.50;;
25609;SDS011;13479;49.044;8.716;2022-11-27T12:00:46;4.30;;;1.55;;
25609;SDS011;13479;49.044;8.716;2022-11-27T12:03:31;2.40;;;1.40;;
25609;SDS011;13479;49.044;8.716;2022-11-27T12:08:43;3.10;;;1.80;;
25609;SDS011;13479;49.044;8.716;2022-11-27T12:11:22;2.95;;;1.83;;
25609;SDS011;13479;49.044;8.716;2022-11-27T12:14:15;4.32;;;2.03;;
25609;SDS011;13479;49.044;8.716;2022-11-27T12:17:03;3.38;;;2.13;;
25609;SDS011;13479;49.044;8.716;2022-11-27T12:36:42;5.82;;;2.40;;
25609;SDS011;13479;49.044;8.716;2022-11-27T12:45:07;6.90;;;2.83;;
25609;SDS011;13479;49.044;8.716;2022-11-27T12:47:42;6.97;;;2.33;;
25609;SDS011;13479;49.044;8.716;2022-11-27T12:50:22;6.20;;;3.03;;
25609;SDS011;13479;49.044;8.716;2022-11-27T12:53:16;12.02;;;4.95;;
25609;SDS011;13479;49.044;8.716;2022-11-27T12:55:57;7.60;;;3.30;;
25609;SDS011;13479;49.044;8.716;2022-11-27T12:58:29;7.13;;;3.92;;
25609;SDS011;13479;49.044;8.716;2022-11-27T13:01:02;8.60;;;4.25;;
25609;SDS011;13479;49.044;8.716;2022-11-27T13:03:40;8.68;;;4.40;;
25609;SDS011;13479;49.044;8.716;2022-11-27T13:06:13;11.10;;;4.30;;
25609;SDS011;13479;49.044;8.716;2022-11-27T13:08:57;12.85;;;5.55;;
25609;SDS011;13479;49.044;8.716;2022-11-27T13:11:32;7.97;;;4.27;;
25609;SDS011;13479;49.044;8.716;2022-11-27T13:14:11;5.93;;;2.80;;
25609;SDS011;13479;49.044;8.716;2022-11-27T13:16:46;6.75;;;3.85;;
25609;SDS011;13479;49.044;8.716;2022-11-27T13:21:54;8.70;;;2.90;;
25609;SDS011;13479;49.044;8.716;2022-11-27T13:24:21;5.33;;;2.63;;
25609;SDS011;13479;49.044;8.716;2022-11-27T13:27:00;5.15;;;2.80;;
25609;SDS011;13479;49.044;8.716;2022-11-27T13:29:32;6.10;;;2.83;;
25609;SDS011;13479;49.044;8.716;2022-11-27T13:32:03;4.32;;;2.42;;
25609;SDS011;13479;49.044;8.716;2022-11-27T13:34:32;6.10;;;3.20;;
25609;SDS011;13479;49.044;8.716;2022-11-27T13:37:05;5.07;;;3.63;;
25609;SDS011;13479;49.044;8.716;2022-11-27T13:39:39;6.30;;;4.00;;
25609;SDS011;13479;49.044;8.716;2022-11-27T13:42:11;6.93;;;4.20;;
25609;SDS011;13479;49.044;8.716;2022-11-27T13:44:44;6.95;;;4.05;;
25609;SDS011;13479;49.044;8.716;2022-11-27T13:47:17;9.88;;;4.95;;
25609;SDS011;13479;49.044;8.716;2022-11-27T13:49:55;6.68;;;4.50;;
25609;SDS011;13479;49.044;8.716;2022-11-27T13:52:24;7.70;;;4.53;;
25609;SDS011;13479;49.044;8.716;2022-11-27T13:54:50;6.47;;;4.53;;
25609;SDS011;13479;49.044;8.716;2022-11-27T13:57:20;6.93;;;4.85;;
25609;SDS011;13479;49.044;8.716;2022-11-27T13:59:53;8.70;;;5.50;;
25609;SDS011;13479;49.044;8.716;2022-11-27T14:02:19;14.52;;;6.40;;
25609;SDS011;13479;49.044;8.716;2022-11-27T14:04:48;11.20;;;6.35;;
25609;SDS011;13479;49.044;8.716;2022-11-27T14:07:15;9.25;;;5.95;;
25609;SDS011;13479;49.044;8.716;2022-11-27T14:12:24;10.80;;;7.37;;
25609;SDS011;13479;49.044;8.716;2022-11-27T14:15:07;13.60;;;7.53;;
25609;SDS011;13479;49.044;8.716;2022-11-27T14:17:45;11.70;;;7.53;;
25609;SDS011;13479;49.044;8.716;2022-11-27T14:25:19;11.85;;;7.82;;
25609;SDS011;13479;49.044;8.716;2022-11-27T14:28:02;14.13;;;8.30;;
25609;SDS011;13479;49.044;8.716;2022-11-27T14:30:30;10.73;;;7.20;;
25609;SDS011;13479;49.044;8.716;2022-11-27T14:33:24;10.60;;;7.10;;
25609;SDS011;13479;49.044;8.716;2022-11-27T14:35:55;11.00;;;7.78;;
25609;SDS011;13479;49.044;8.716;2022-11-27T14:38:23;12.70;;;7.70;;
25609;SDS011;13479;49.044;8.716;2022-11-27T14:40:50;11.83;;;7.50;;
25609;SDS011;13479;49.044;8.716;2022-11-27T14:43:18;11.20;;;7.60;;
25609;SDS011;13479;49.044;8.716;2022-11-27T14:45:52;11.27;;;7.67;;
25609;SDS011;13479;49.044;8.716;2022-11-27T14:48:24;12.20;;;7.90;;
25609;SDS011;13479;49.044;8.716;2022-11-27T14:50:51;14.73;;;7.63;;
25609;SDS011;13479;49.044;8.716;2022-11-27T14:53:19;13.77;;;8.80;;
25609;SDS011;13479;49.044;8.716;2022-11-27T14:55:47;24.80;;;13.00;;
25609;SDS011;13479;49.044;8.716;2022-11-27T14:58:18;25.50;;;12.53;;
25609;SDS011;13479;49.044;8.716;2022-11-27T15:00:50;26.40;;;12.70;;
25609;SDS011;13479;49.044;8.716;2022-11-27T15:03:22;32.60;;;16.13;;
25609;SDS011;13479;49.044;8.716;2022-11-27T15:05:53;28.10;;;13.77;;
25609;SDS011;13479;49.044;8.716;2022-11-27T15:08:21;22.73;;;11.53;;
25609;SDS011;13479;49.044;8.716;2022-11-27T15:10:47;21.63;;;11.10;;
25609;SDS011;13479;49.044;8.716;2022-11-27T15:13:19;15.77;;;9.57;;
25609;SDS011;13479;49.044;8.716;2022-11-27T15:15:58;13.93;;;8.20;;
25609;SDS011;13479;49.044;8.716;2022-11-27T15:18:27;13.23;;;8.77;;
25609;SDS011;13479;49.044;8.716;2022-11-27T15:20:54;14.83;;;8.60;;
25609;SDS011;13479;49.044;8.716;2022-11-27T15:23:22;13.70;;;8.30;;
25609;SDS011;13479;49.044;8.716;2022-11-27T15:28:36;11.23;;;7.60;;
25609;SDS011;13479;49.044;8.716;2022-11-27T15:36:24;17.23;;;9.37;;
25609;SDS011;13479;49.044;8.716;2022-11-27T15:38:50;17.63;;;9.97;;
25609;SDS011;13479;49.044;8.716;2022-11-27T15:41:25;19.70;;;11.90;;
25609;SDS011;13479;49.044;8.716;2022-11-27T15:43:52;17.77;;;10.90;;
25609;SDS011;13479;49.044;8.716;2022-11-27T15:46:24;18.77;;;11.30;;
25609;SDS011;13479;49.044;8.716;2022-11-27T15:48:51;15.90;;;10.53;;
25609;SDS011;13479;49.044;8.716;2022-11-27T15:51:16;18.93;;;11.00;;
25609;SDS011;13479;49.044;8.716;2022-11-27T15:53:41;25.17;;;13.57;;
25609;SDS011;13479;49.044;8.716;2022-11-27T15:56:07;25.03;;;12.57;;
25609;SDS011;13479;49.044;8.716;2022-11-27T15:58:33;22.37;;;12.53;;
25609;SDS011;13479;49.044;8.716;2022-11-27T16:00:58;25.83;;;13.37;;
25609;SDS011;13479;49.044;8.716;2022-11-27T16:03:23;18.27;;;10.73;;
25609;SDS011;13479;49.044;8.716;2022-11-27T16:05:48;32.67;;;17.47;;
25609;SDS011;13479;49.044;8.716;2022-11-27T16:08:14;31.73;;;16.20;;
25609;SDS011;13479;49.044;8.716;2022-11-27T16:10:39;38.87;;;21.13;;
25609;SDS011;13479;49.044;8.716;2022-11-27T16:13:06;32.83;;;16.50;;
25609;SDS011;13479;49.044;8.716;2022-11-27T16:15:31;21.13;;;11.77;;
25609;SDS011;13479;49.044;8.716;2022-11-27T16:17:57;21.60;;;11.53;;
25609;SDS011;13479;49.044;8.716;2022-11-27T16:20:22;17.93;;;10.87;;
25609;SDS011;13479;49.044;8.716;2022-11-27T16:22:47;19.17;;;9.90;;
25609;SDS011;13479;49.044;8.716;2022-11-27T16:25:13;18.00;;;9.63;;
25609;SDS011;13479;49.044;8.716;2022-11-27T16:27:38;16.07;;;9.83;;
25609;SDS011;13479;49.044;8.716;2022-11-27T16:30:04;13.43;;;7.37;;
25609;SDS011;13479;49.044;8.716;2022-11-27T16:32:30;16.40;;;8.37;;
25609;SDS011;13479;49.044;8.716;2022-11-27T16:34:55;15.30;;;8.60;;
25609;SDS011;13479;49.044;8.716;2022-11-27T16:37:20;16.83;;;10.40;;
25609;SDS011;13479;49.044;8.716;2022-11-27T16:39:45;21.67;;;13.03;;
25609;SDS011;13479;49.044;8.716;2022-11-27T16:42:11;26.43;;;14.70;;
25609;SDS011;13479;49.044;8.716;2022-11-27T16:44:36;25.33;;;14.03;;
25609;SDS011;13479;49.044;8.716;2022-11-27T16:47:01;26.93;;;13.47;;
25609;SDS011;13479;49.044;8.716;2022-11-27T16:49:26;37.00;;;18.93;;
25609;SDS011;13479;49.044;8.716;2022-11-27T16:51:52;30.70;;;17.43;;
25609;SDS011;13479;49.044;8.716;2022-11-27T16:54:17;31.00;;;16.70;;
25609;SDS011;13479;49.044;8.716;2022-11-27T16:56:42;33.07;;;18.23;;
25609;SDS011;13479;49.044;8.716;2022-11-27T16:59:09;36.27;;;20.40;;
25609;SDS011;13479;49.044;8.716;2022-11-27T17:01:36;37.43;;;19.80;;
25609;SDS011;13479;49.044;8.716;2022-11-27T17:04:02;34.60;;;18.73;;
25609;SDS011;13479;49.044;8.716;2022-11-27T17:06:31;31.17;;;18.40;;
25609;SDS011;13479;49.044;8.716;2022-11-27T17:08:58;29.43;;;17.63;;
25609;SDS011;13479;49.044;8.716;2022-11-27T17:11:25;37.00;;;21.10;;
25609;SDS011;13479;49.044;8.716;2022-11-27T17:13:55;44.47;;;22.90;;
25609;SDS011;13479;49.044;8.716;2022-11-27T17:16:22;38.37;;;22.40;;
25609;SDS011;13479;49.044;8.716;2022-11-27T17:18:48;38.40;;;21.13;;
25609;SDS011;13479;49.044;8.716;2022-11-27T17:21:15;41.23;;;24.07;;
25609;SDS011;13479;49.044;8.716;2022-11-27T17:23:42;35.23;;;20.57;;
25609;SDS011;13479;49.044;8.716;2022-11-27T17:26:11;75.03;;;40.27;;
25609;SDS011;13479;49.044;8.716;2022-11-27T17:28:42;41.37;;;23.53;;
25609;SDS011;13479;49.044;8.716;2022-11-27T17:31:10;46.00;;;25.27;;
25609;SDS011;13479;49.044;8.716;2022-11-27T17:33:39;40.73;;;23.23;;
25609;SDS011;13479;49.044;8.716;2022-11-27T17:36:04;44.53;;;23.87;;
25609;SDS011;13479;49.044;8.716;2022-11-27T17:38:30;44.37;;;25.47;;
25609;SDS011;13479;49.044;8.716;2022-11-27T17:41:02;41.77;;;21.97;;
25609;SDS011;13479;49.044;8.716;2022-11-27T17:43:31;19.97;;;10.93;;
25609;SDS011;13479;49.044;8.716;2022-11-27T17:45:57;38.30;;;18.07;;
25609;SDS011;13479;49.044;8.716;2022-11-27T17:48:22;36.30;;;19.67;;
25609;SDS011;13479;49.044;8.716;2022-11-27T17:50:48;26.53;;;12.33;;
25609;SDS011;13479;49.044;8.716;2022-11-27T17:53:14;14.30;;;8.40;;
25609;SDS011;13479;49.044;8.716;2022-11-27T17:55:39;9.73;;;5.97;;
25609;SDS011;13479;49.044;8.716;2022-11-27T17:58:04;8.30;;;4.70;;
25609;SDS011;13479;49.044;8.716;2022-11-27T18:00:31;9.50;;;4.43;;
25609;SDS011;13479;49.044;8.716;2022-11-27T18:02:57;9.20;;;4.77;;
25609;SDS011;13479;49.044;8.716;2022-11-27T18:05:22;9.70;;;4.53;;
25609;SDS011;13479;49.044;8.716;2022-11-27T18:07:47;8.93;;;3.67;;
25609;SDS011;13479;49.044;8.716;2022-11-27T18:10:14;6.60;;;3.93;;
25609;SDS011;13479;49.044;8.716;2022-11-27T18:12:43;6.63;;;4.10;;
25609;SDS011;13479;49.044;8.716;2022-11-27T18:15:09;6.57;;;3.60;;
25609;SDS011;13479;49.044;8.716;2022-11-27T18:17:34;7.10;;;3.67;;
25609;SDS011;13479;49.044;8.716;2022-11-27T18:20:00;7.07;;;4.27;;
25609;SDS011;13479;49.044;8.716;2022-11-27T18:22:27;7.20;;;4.20;;
25609;SDS011;13479;49.044;8.716;2022-11-27T18:24:52;8.87;;;4.53;;
25609;SDS011;13479;49.044;8.716;2022-11-27T18:27:17;9.60;;;5.50;;
25609;SDS011;13479;49.044;8.716;2022-11-27T18:29:43;11.13;;;5.43;;
25609;SDS011;13479;49.044;8.716;2022-11-27T18:32:09;17.10;;;10.47;;
25609;SDS011;13479;49.044;8.716;2022-11-27T18:34:35;21.90;;;13.33;;
25609;SDS011;13479;49.044;8.716;2022-11-27T18:37:00;21.10;;;10.23;;
25609;SDS011;13479;49.044;8.716;2022-11-27T18:39:26;50.07;;;21.63;;
25609;SDS011;13479;49.044;8.716;2022-11-27T18:41:51;25.10;;;8.80;;
25609;SDS011;13479;49.044;8.716;2022-11-27T18:44:17;7.27;;;3.43;;
25609;SDS011;13479;49.044;8.716;2022-11-27T18:46:42;8.23;;;3.30;;
25609;SDS011;13479;49.044;8.716;2022-11-27T18:49:07;7.93;;;4.07;;
25609;SDS011;13479;49.044;8.716;2022-11-27T18:51:33;6.90;;;3.40;;
25609;SDS011;13479;49.044;8.716;2022-11-27T18:53:58;6.67;;;3.20;;
25609;SDS011;13479;49.044;8.716;2022-11-27T18:56:28;7.33;;;3.53;;
25609;SDS011;13479;49.044;8.716;2022-11-27T18:58:54;9.57;;;5.07;;
25609;SDS011;13479;49.044;8.716;2022-11-27T19:01:21;7.67;;;3.80;;
25609;SDS011;13479;49.044;8.716;2022-11-27T19:03:52;8.30;;;4.17;;
25609;SDS011;13479;49.044;8.716;2022-11-27T19:06:18;10.20;;;4.50;;
25609;SDS011;13479;49.044;8.716;2022-11-27T19:08:45;9.10;;;4.70;;
25609;SDS011;13479;49.044;8.716;2022-11-27T19:11:13;6.00;;;3.23;;
25609;SDS011;13479;49.044;8.716;2022-11-27T19:13:39;7.13;;;4.00;;
25609;SDS011;13479;49.044;8.716;2022-11-27T19:16:06;9.43;;;4.30;;
25609;SDS011;13479;49.044;8.716;2022-11-27T19:18:34;7.33;;;3.80;;
25609;SDS011;13479;49.044;8.716;2022-11-27T19:21:01;7.87;;;4.27;;
25609;SDS011;13479;49.044;8.716;2022-11-27T19:23:31;26.67;;;11.73;;
25609;SDS011;13479;49.044;8.716;2022-11-27T19:25:56;7.37;;;4.10;;
25609;SDS011;13479;49.044;8.716;2022-11-27T19:28:22;8.45;;;4.95;;
25609;SDS011;13479;49.044;8.716;2022-11-27T19:30:47;10.97;;;5.40;;
25609;SDS011;13479;49.044;8.716;2022-11-27T19:33:12;11.60;;;5.95;;
25609;SDS011;13479;49.044;8.716;2022-11-27T19:35:37;10.00;;;4.93;;
25609;SDS011;13479;49.044;8.716;2022-11-27T19:38:03;8.23;;;4.50;;
25609;SDS011;13479;49.044;8.716;2022-11-27T19:40:29;10.23;;;4.40;;
25609;SDS011;13479;49.044;8.716;2022-11-27T19:42:56;8.57;;;4.50;;
25609;SDS011;13479;49.044;8.716;2022-11-27T19:45:22;9.50;;;5.10;;
25609;SDS011;13479;49.044;8.716;2022-11-27T19:47:48;8.53;;;4.57;;
25609;SDS011;13479;49.044;8.716;2022-11-27T19:50:14;8.70;;;4.73;;
25609;SDS011;13479;49.044;8.716;2022-11-27T19:52:40;11.10;;;5.27;;
25609;SDS011;13479;49.044;8.716;2022-11-27T19:55:06;15.27;;;6.75;;
25609;SDS011;13479;49.044;8.716;2022-11-27T19:57:33;13.73;;;6.07;;
25609;SDS011;13479;49.044;8.716;2022-11-27T19:59:59;12.10;;;4.67;;
25609;SDS011;13479;49.044;8.716;2022-11-27T20:02:24;11.73;;;5.53;;
25609;SDS011;13479;49.044;8.716;2022-11-27T20:04:52;9.43;;;5.73;;
25609;SDS011;13479;49.044;8.716;2022-11-27T20:07:18;9.40;;;4.53;;
25609;SDS011;13479;49.044;8.716;2022-11-27T20:09:43;10.20;;;5.30;;
25609;SDS011;13479;49.044;8.716;2022-11-27T20:12:08;9.07;;;5.10;;
25609;SDS011;13479;49.044;8.716;2022-11-27T20:14:34;9.80;;;5.60;;
25609;SDS011;13479;49.044;8.716;2022-11-27T20:16:59;10.93;;;5.68;;
25609;SDS011;13479;49.044;8.716;2022-11-27T20:19:24;9.23;;;5.00;;
25609;SDS011;13479;49.044;8.716;2022-11-27T20:21:50;9.77;;;5.03;;
25609;SDS011;13479;49.044;8.716;2022-11-27T20:24:15;10.87;;;5.33;;
25609;SDS011;13479;49.044;8.716;2022-11-27T20:26:41;11.47;;;6.37;;
25609;SDS011;13479;49.044;8.716;2022-11-27T20:29:06;11.03;;;6.07;;
25609;SDS011;13479;49.044;8.716;2022-11-27T20:31:32;12.00;;;5.83;;
25609;SDS011;13479;49.044;8.716;2022-11-27T20:34:00;13.70;;;6.63;;
25609;SDS011;13479;49.044;8.716;2022-11-27T20:36:28;10.47;;;6.20;;
25609;SDS011;13479;49.044;8.716;2022-11-27T20:38:56;10.23;;;5.80;;
25609;SDS011;13479;49.044;8.716;2022-11-27T20:41:22;10.60;;;6.10;;
25609;SDS011;13479;49.044;8.716;2022-11-27T20:43:52;9.50;;;5.40;;
25609;SDS011;13479;49.044;8.716;2022-11-27T20:46:18;9.53;;;5.60;;
25609;SDS011;13479;49.044;8.716;2022-11-27T20:48:44;9.57;;;5.37;;
25609;SDS011;13479;49.044;8.716;2022-11-27T20:51:12;9.57;;;5.30;;